createdAt,value
2022-12-19T00:01:38.893Z,-0.19
2022-12-19T00:04:09.130Z,-0.24
2022-12-19T00:06:37.780Z,-0.09
2022-12-19T00:09:05.392Z,-0.08
2022-12-19T00:11:33.205Z,0.01
2022-12-19T00:14:00.815Z,-0.01
2022-12-19T00:16:29.164Z,-0.15
2022-12-19T00:18:58.761Z,-0.04
2022-12-19T00:21:30.814Z,-0.22
2022-12-19T00:24:01.598Z,-0.11
2022-12-19T00:26:31.275Z,-0.68
2022-12-19T00:29:00.072Z,-0.35
2022-12-19T00:31:30.834Z,-0.41
2022-12-19T00:33:58.327Z,-0.25
2022-12-19T00:36:27.641Z,-0.22
2022-12-19T00:38:56.287Z,-0.09
2022-12-19T00:41:25.514Z,-0.51
2022-12-19T00:43:57.255Z,-0.10
2022-12-19T00:46:24.967Z,-0.20
2022-12-19T00:48:52.354Z,-0.10
2022-12-19T00:51:22.284Z,-0.14
2022-12-19T00:53:50.358Z,-0.21
2022-12-19T00:56:21.913Z,-0.14
2022-12-19T00:58:49.767Z,0.11
2022-12-19T01:01:47.416Z,0.12
2022-12-19T01:04:28.153Z,0.15
2022-12-19T01:07:01.110Z,-0.15
2022-12-19T01:09:32.638Z,0.12
2022-12-19T01:12:18.597Z,0.05
2022-12-19T01:14:46.192Z,0.02
2022-12-19T01:17:13.593Z,-0.06
2022-12-19T01:19:44.359Z,-0.37
2022-12-19T01:22:13.236Z,-0.29
2022-12-19T01:24:40.774Z,-0.42
2022-12-19T01:27:08.417Z,-0.39
2022-12-19T01:29:39.966Z,-0.45
2022-12-19T01:32:20.982Z,-0.96
2022-12-19T01:34:48.708Z,-0.57
2022-12-19T01:37:17.394Z,-0.42
2022-12-19T01:39:44.955Z,-0.34
2022-12-19T01:42:21.153Z,-1.59
2022-12-19T01:45:12.164Z,-0.45
2022-12-19T01:48:00.502Z,-0.33
2022-12-19T01:50:56.038Z,0.21
2022-12-19T01:53:59.115Z,0.48
2022-12-19T01:56:29.290Z,0.50
2022-12-19T01:59:05.955Z,0.39
2022-12-19T02:01:40.035Z,-0.11
2022-12-19T02:04:22.051Z,0.07
2022-12-19T02:06:49.440Z,0.44
2022-12-19T02:09:16.798Z,0.53
2022-12-19T02:11:44.489Z,0.17
2022-12-19T02:14:12.238Z,0.43
2022-12-19T02:17:15.169Z,0.73
2022-12-19T02:20:10.972Z,0.60
2022-12-19T02:22:48.012Z,0.35
2022-12-19T02:25:40.561Z,-0.05
2022-12-19T02:28:53.133Z,0.84
2022-12-19T02:31:35.135Z,0.79
2022-12-19T02:34:29.794Z,0.82
2022-12-19T02:37:03.600Z,1.16
2022-12-19T02:39:50.966Z,1.08
2022-12-19T02:42:23.431Z,1.32
2022-12-19T02:44:53.058Z,0.42
2022-12-19T02:47:21.348Z,1.08
2022-12-19T02:49:48.715Z,1.21
2022-12-19T02:52:19.392Z,1.43
2022-12-19T02:54:58.027Z,1.37
2022-12-19T02:57:28.484Z,1.36
2022-12-19T03:00:13.441Z,0.96
2022-12-19T03:03:11.765Z,1.31
2022-12-19T03:06:11.403Z,1.39
2022-12-19T03:08:43.121Z,1.49
2022-12-19T03:11:13.332Z,1.57
2022-12-19T03:13:49.714Z,1.39
2022-12-19T03:16:17.425Z,1.76
2022-12-19T03:18:44.759Z,1.54
2022-12-19T03:21:32.305Z,1.60
2022-12-19T03:23:59.913Z,1.43
2022-12-19T03:26:33.961Z,1.47
2022-12-19T03:29:05.913Z,1.64
2022-12-19T03:31:33.498Z,0.55
2022-12-19T03:34:10.622Z,0.93
2022-12-19T03:36:45.235Z,0.64
2022-12-19T03:39:12.932Z,0.65
2022-12-19T03:41:59.392Z,0.98
2022-12-19T03:44:27.754Z,1.45
2022-12-19T03:46:58.999Z,1.38
2022-12-19T03:49:26.847Z,1.53
2022-12-19T03:52:05.884Z,1.59
2022-12-19T03:54:36.609Z,1.66
2022-12-19T03:57:21.262Z,1.82
2022-12-19T03:59:54.646Z,1.98
2022-12-19T04:02:22.190Z,1.98
2022-12-19T04:05:00.857Z,1.87
2022-12-19T04:07:28.321Z,1.71
2022-12-19T04:09:56.155Z,1.91
2022-12-19T04:12:28.862Z,1.50
2022-12-19T04:14:56.451Z,1.27
2022-12-19T04:17:39.397Z,1.58
2022-12-19T04:20:17.798Z,1.95
2022-12-19T04:22:52.912Z,1.57
2022-12-19T04:25:29.204Z,1.51
2022-12-19T04:27:59.547Z,1.79
2022-12-19T04:30:27.699Z,1.36
2022-12-19T04:32:55.078Z,1.20
2022-12-19T04:35:22.430Z,1.41
2022-12-19T04:37:50.004Z,1.68
2022-12-19T04:40:17.396Z,1.71
2022-12-19T04:42:45.207Z,1.89
2022-12-19T04:45:12.828Z,1.91
2022-12-19T04:47:40.458Z,1.52
2022-12-19T04:50:08.097Z,1.74
2022-12-19T04:52:35.744Z,2.02
2022-12-19T04:55:03.079Z,1.24
2022-12-19T04:57:30.880Z,1.62
2022-12-19T04:59:58.481Z,2.02
2022-12-19T05:02:26.483Z,1.75
2022-12-19T05:04:55.081Z,1.64
2022-12-19T05:07:22.766Z,1.12
2022-12-19T05:09:50.089Z,1.66
2022-12-19T05:12:17.459Z,1.70
2022-12-19T05:14:45.094Z,1.62
2022-12-19T05:17:12.453Z,1.81
2022-12-19T05:19:39.788Z,2.10
2022-12-19T05:22:07.452Z,2.29
2022-12-19T05:24:34.819Z,2.10
2022-12-19T05:27:02.217Z,2.03
2022-12-19T05:29:29.984Z,2.27
2022-12-19T05:31:57.743Z,2.35
2022-12-19T05:34:26.431Z,2.35
2022-12-19T05:36:54.028Z,2.45
2022-12-19T05:39:21.337Z,1.62
2022-12-19T05:41:49.296Z,2.20
2022-12-19T05:44:17.263Z,2.49
2022-12-19T05:46:45.143Z,2.43
2022-12-19T05:49:12.569Z,2.63
2022-12-19T05:51:40.623Z,2.28
2022-12-19T05:54:07.961Z,2.60
2022-12-19T05:56:35.399Z,2.14
2022-12-19T05:59:03.038Z,2.51
2022-12-19T06:01:30.653Z,2.61
2022-12-19T06:03:58.310Z,2.64
2022-12-19T06:06:26.307Z,2.69
2022-12-19T06:08:57.166Z,2.66
2022-12-19T06:11:24.872Z,2.14
2022-12-19T06:13:52.266Z,2.50
2022-12-19T06:16:21.140Z,2.90
2022-12-19T06:18:48.800Z,2.85
2022-12-19T06:21:17.881Z,2.24
2022-12-19T06:23:45.254Z,1.93
2022-12-19T06:26:18.740Z,2.59
2022-12-19T06:28:50.417Z,2.58
2022-12-19T06:31:18.709Z,1.73
2022-12-19T06:33:46.218Z,2.13
2022-12-19T06:36:21.693Z,1.27
2022-12-19T06:38:49.507Z,1.56
2022-12-19T06:41:35.814Z,2.01
2022-12-19T06:44:05.111Z,2.12
2022-12-19T06:46:32.770Z,2.35
2022-12-19T06:49:00.217Z,2.15
2022-12-19T06:51:28.189Z,2.48
2022-12-19T06:53:58.729Z,2.07
2022-12-19T06:56:26.327Z,1.80
2022-12-19T06:58:54.047Z,1.41
2022-12-19T07:01:52.712Z,1.89
2022-12-19T07:04:40.953Z,2.16
2022-12-19T07:07:08.362Z,1.93
2022-12-19T07:09:36.143Z,0.98
2022-12-19T07:12:06.285Z,0.98
2022-12-19T07:14:33.802Z,2.02
2022-12-19T07:17:01.424Z,1.63
2022-12-19T07:19:28.821Z,1.73
2022-12-19T07:21:56.174Z,0.89
2022-12-19T07:24:23.781Z,1.95
2022-12-19T07:26:51.233Z,2.25
2022-12-19T07:29:18.801Z,1.79
2022-12-19T07:31:46.443Z,2.06
2022-12-19T07:34:13.877Z,2.24
2022-12-19T07:36:41.260Z,2.55
2022-12-19T07:39:08.886Z,1.43
2022-12-19T07:41:37.524Z,1.55
2022-12-19T07:44:06.180Z,1.98
2022-12-19T07:46:34.063Z,1.48
2022-12-19T07:49:01.870Z,1.56
2022-12-19T07:51:29.347Z,1.87
2022-12-19T07:53:56.987Z,2.23
2022-12-19T07:56:24.370Z,2.42
2022-12-19T07:58:52.356Z,2.68
2022-12-19T08:01:20.451Z,2.07
2022-12-19T08:03:48.126Z,2.65
2022-12-19T08:06:15.479Z,1.77
2022-12-19T08:08:42.842Z,2.12
2022-12-19T08:11:17.532Z,2.38
2022-12-19T08:13:46.874Z,1.40
2022-12-19T08:16:15.091Z,2.08
2022-12-19T08:18:42.566Z,2.32
2022-12-19T08:21:10.361Z,2.42
2022-12-19T08:23:38.845Z,2.88
2022-12-19T08:26:11.368Z,2.42
2022-12-19T08:28:39.015Z,2.27
2022-12-19T08:31:07.715Z,3.04
2022-12-19T08:33:35.852Z,2.16
2022-12-19T08:36:08.377Z,1.81
2022-12-19T08:38:36.250Z,1.69
2022-12-19T08:41:04.248Z,1.55
2022-12-19T08:43:31.984Z,2.14
2022-12-19T08:45:59.403Z,2.35
2022-12-19T08:48:27.194Z,2.66
2022-12-19T08:50:56.837Z,2.48
2022-12-19T08:53:26.672Z,2.80
2022-12-19T08:56:07.992Z,2.28
2022-12-19T08:58:35.376Z,1.18
2022-12-19T09:01:09.084Z,0.70
2022-12-19T09:03:50.224Z,0.18
2022-12-19T09:06:24.340Z,1.26
2022-12-19T09:08:51.831Z,0.72
2022-12-19T09:11:21.149Z,1.48
2022-12-19T09:13:49.026Z,1.09
2022-12-19T09:16:18.821Z,1.83
2022-12-19T09:18:48.796Z,1.29
2022-12-19T09:21:20.660Z,1.42
2022-12-19T09:23:49.737Z,2.18
2022-12-19T09:26:17.658Z,2.10
2022-12-19T09:28:45.852Z,2.36
2022-12-19T09:31:18.061Z,2.86
2022-12-19T09:33:46.711Z,2.53
2022-12-19T09:36:15.624Z,2.75
2022-12-19T09:38:43.265Z,2.61
2022-12-19T09:41:13.607Z,3.05
2022-12-19T09:44:05.379Z,2.18
2022-12-19T09:46:42.599Z,1.80
2022-12-19T09:49:13.180Z,1.85
2022-12-19T09:51:46.003Z,1.05
2022-12-19T09:54:19.023Z,1.05
2022-12-19T09:56:46.941Z,1.60
2022-12-19T09:59:20.156Z,1.09
2022-12-19T10:01:56.305Z,2.07
2022-12-19T10:04:24.796Z,2.42
2022-12-19T10:07:18.228Z,2.10
2022-12-19T10:11:54.812Z,2.03
2022-12-19T10:12:58.506Z,2.41
2022-12-19T10:16:01.545Z,2.71
2022-12-19T10:18:41.553Z,2.63
2022-12-19T10:21:36.969Z,2.17
2022-12-19T10:24:31.718Z,1.51
2022-12-19T10:27:24.229Z,2.34
2022-12-19T10:29:51.619Z,2.02
2022-12-19T10:32:40.343Z,1.58
2022-12-19T10:35:15.977Z,1.21
2022-12-19T10:38:09.074Z,0.94
2022-12-19T10:40:44.085Z,1.58
2022-12-19T10:43:22.954Z,1.91
2022-12-19T10:45:59.470Z,2.22
2022-12-19T10:48:30.582Z,1.62
2022-12-19T10:51:06.899Z,2.05
2022-12-19T10:53:34.781Z,2.58
2022-12-19T10:56:10.199Z,2.43
2022-12-19T10:58:37.871Z,1.74
2022-12-19T11:01:15.501Z,1.89
2022-12-19T11:03:46.327Z,2.13
2022-12-19T11:07:04.676Z,1.94
2022-12-19T11:09:39.309Z,1.14
2022-12-19T11:15:21.804Z,2.04
2022-12-19T11:21:27.050Z,2.10
2022-12-19T11:29:17.148Z,1.89
2022-12-19T11:29:18.418Z,2.05
2022-12-19T11:30:35.539Z,2.15
2022-12-19T11:30:38.648Z,1.73
2022-12-19T11:32:42.067Z,1.66
2022-12-19T11:35:36.542Z,1.20
2022-12-19T11:38:06.106Z,2.43
2022-12-19T11:40:49.268Z,1.93
2022-12-19T11:43:48.277Z,2.27
2022-12-19T11:46:34.404Z,2.32
2022-12-19T11:49:04.195Z,1.94
2022-12-19T11:52:04.033Z,2.26
2022-12-19T11:54:37.668Z,2.20
2022-12-19T11:57:05.116Z,2.55
2022-12-19T11:59:35.440Z,2.32
2022-12-19T12:02:05.852Z,1.94
2022-12-19T12:04:42.816Z,2.81
2022-12-19T12:07:40.697Z,2.68
2022-12-19T12:14:12.080Z,1.37
2022-12-19T12:18:50.073Z,1.53
2022-12-19T12:29:48.715Z,1.29
2022-12-19T12:31:28.798Z,1.91
2022-12-19T12:31:38.743Z,1.97
2022-12-19T12:31:39.144Z,2.05
2022-12-19T12:32:05.780Z,1.97
2022-12-19T12:35:46.563Z,1.86
2022-12-19T12:38:27.304Z,1.71
2022-12-19T12:41:10.104Z,2.13
2022-12-19T12:44:03.690Z,2.15
2022-12-19T12:46:34.782Z,2.04
2022-12-19T12:49:04.184Z,2.66
2022-12-19T12:51:35.170Z,1.66
2022-12-19T12:54:07.992Z,1.48
2022-12-19T12:56:35.917Z,1.35
2022-12-19T12:59:19.140Z,2.00
2022-12-19T13:01:50.992Z,1.77
2022-12-19T13:04:21.376Z,1.49
2022-12-19T13:06:51.862Z,1.79
2022-12-19T13:09:24.954Z,1.75
2022-12-19T13:12:42.253Z,1.93
2022-12-19T13:15:22.539Z,1.62
2022-12-19T13:17:50.258Z,1.00
2022-12-19T13:20:17.506Z,0.86
2022-12-19T13:22:46.079Z,2.01
2022-12-19T13:25:37.103Z,1.35
2022-12-19T13:28:04.276Z,1.75
2022-12-19T13:30:32.726Z,1.40
2022-12-19T13:33:20.029Z,1.95
2022-12-19T13:39:27.053Z,1.90
2022-12-19T13:40:02.200Z,2.34
2022-12-19T13:41:51.084Z,2.03
2022-12-19T13:44:20.199Z,2.37
2022-12-19T13:46:47.885Z,2.24
2022-12-19T13:49:18.994Z,1.62
2022-12-19T13:51:52.457Z,1.90
2022-12-19T13:54:32.112Z,2.35
2022-12-19T13:57:00.615Z,1.84
2022-12-19T13:59:35.084Z,2.63
2022-12-19T14:02:16.014Z,1.60
2022-12-19T14:04:43.999Z,1.66
2022-12-19T14:07:42.173Z,1.59
2022-12-19T14:11:40.285Z,1.63
2022-12-19T14:14:00.503Z,2.24
2022-12-19T14:16:20.401Z,2.33
2022-12-19T14:19:03.656Z,2.12
2022-12-19T14:22:04.209Z,2.64
2022-12-19T14:24:20.870Z,2.47
2022-12-19T14:28:18.708Z,2.30
2022-12-19T14:30:26.803Z,1.71
2022-12-19T14:33:46.718Z,1.52
2022-12-19T14:36:07.090Z,1.89
2022-12-19T14:39:27.649Z,1.80
2022-12-19T14:41:45.844Z,2.19
2022-12-19T14:53:51.675Z,1.56
2022-12-19T14:54:02.164Z,1.53
2022-12-19T14:54:03.656Z,2.29
2022-12-19T14:54:22.927Z,2.11
2022-12-19T14:56:13.690Z,2.03
2022-12-19T14:58:55.668Z,1.87
2022-12-19T15:01:30.535Z,0.80
2022-12-19T15:04:48.011Z,1.10
2022-12-19T15:07:07.429Z,1.91
2022-12-19T15:11:08.383Z,1.59
2022-12-19T15:14:52.402Z,1.33
2022-12-19T15:15:46.369Z,1.35
2022-12-19T15:18:34.293Z,1.48
2022-12-19T15:21:04.073Z,0.50
2022-12-19T15:23:31.789Z,1.46
2022-12-19T15:26:06.173Z,1.49
2022-12-19T15:28:40.831Z,1.71
2022-12-19T15:31:35.092Z,1.38
2022-12-19T15:34:34.938Z,1.29
2022-12-19T15:37:04.461Z,1.33
2022-12-19T15:39:32.169Z,1.73
2022-12-19T15:41:59.800Z,1.77
2022-12-19T15:44:37.936Z,1.30
2022-12-19T15:47:07.381Z,1.96
2022-12-19T15:49:35.276Z,1.51
2022-12-19T15:52:03.013Z,1.74
2022-12-19T15:57:35.282Z,1.13
2022-12-19T16:00:07.515Z,1.70
2022-12-19T16:03:13.352Z,1.95
2022-12-19T16:05:23.637Z,1.86
2022-12-19T16:07:51.446Z,1.87
2022-12-19T16:10:18.836Z,1.02
2022-12-19T16:12:51.175Z,1.20
2022-12-19T16:15:26.219Z,1.23
2022-12-19T16:17:53.985Z,1.63
2022-12-19T16:20:23.558Z,1.74
2022-12-19T16:22:51.146Z,1.89
2022-12-19T16:25:18.853Z,1.95
2022-12-19T16:27:50.364Z,2.01
2022-12-19T16:30:22.901Z,1.71
2022-12-19T16:32:50.552Z,2.14
2022-12-19T16:35:34.357Z,1.85
2022-12-19T16:38:07.962Z,1.63
2022-12-19T16:40:35.291Z,1.19
2022-12-19T16:43:10.668Z,1.59
2022-12-19T16:45:38.282Z,1.13
2022-12-19T16:48:18.201Z,0.94
2022-12-19T16:50:45.931Z,1.61
2022-12-19T16:53:13.341Z,1.93
2022-12-19T16:55:40.898Z,2.10
2022-12-19T16:58:16.163Z,1.97
2022-12-19T17:00:43.645Z,1.58
2022-12-19T17:03:33.526Z,1.34
2022-12-19T17:06:01.070Z,1.70
2022-12-19T17:08:28.720Z,1.80
2022-12-19T17:10:56.056Z,1.87
2022-12-19T17:13:23.588Z,1.70
2022-12-19T17:15:56.301Z,1.16
2022-12-19T17:18:30.032Z,1.84
2022-12-19T17:20:57.717Z,2.34
2022-12-19T17:23:25.211Z,1.42
2022-12-19T17:25:54.497Z,2.19
2022-12-19T17:28:22.221Z,2.56
2022-12-19T17:30:54.608Z,1.91
2022-12-19T17:33:22.319Z,2.48
2022-12-19T17:35:49.657Z,2.48
2022-12-19T17:38:17.167Z,2.70
2022-12-19T17:40:44.891Z,2.47
2022-12-19T17:43:12.437Z,2.15
2022-12-19T17:45:40.044Z,1.80
2022-12-19T17:48:14.616Z,2.00
2022-12-19T17:50:41.978Z,1.43
2022-12-19T17:53:12.948Z,2.46
2022-12-19T17:55:40.443Z,2.51
2022-12-19T17:58:09.674Z,2.18
2022-12-19T18:00:37.459Z,2.51
2022-12-19T18:03:15.636Z,2.02
2022-12-19T18:05:43.151Z,2.15
2022-12-19T18:08:21.649Z,1.89
2022-12-19T18:10:49.006Z,1.88
2022-12-19T18:13:16.633Z,2.36
2022-12-19T18:15:44.017Z,1.78
2022-12-19T18:18:20.493Z,1.89
2022-12-19T18:20:47.952Z,2.56
2022-12-19T18:23:20.567Z,1.28
2022-12-19T18:25:48.195Z,1.86
2022-12-19T18:28:16.024Z,1.92
2022-12-19T18:30:44.158Z,2.12
2022-12-19T18:33:16.642Z,1.76
2022-12-19T18:35:47.495Z,2.21
2022-12-19T18:38:22.313Z,2.27
2022-12-19T18:40:51.827Z,1.50
2022-12-19T18:43:19.628Z,1.48
2022-12-19T18:45:48.508Z,1.62
2022-12-19T18:48:27.015Z,1.56
2022-12-19T18:50:55.060Z,0.82
2022-12-19T18:53:26.481Z,1.44
2022-12-19T18:55:57.572Z,2.26
2022-12-19T18:58:25.266Z,1.28
2022-12-19T19:00:58.877Z,2.11
2022-12-19T19:03:31.890Z,1.92
2022-12-19T19:05:59.363Z,1.87
2022-12-19T19:08:28.666Z,1.31
2022-12-19T19:10:56.574Z,1.15
2022-12-19T19:13:25.434Z,0.97
2022-12-19T19:16:01.529Z,0.90
2022-12-19T19:18:30.848Z,0.79
2022-12-19T19:21:01.324Z,1.30
2022-12-19T19:23:32.374Z,1.17
2022-12-19T19:25:59.985Z,1.03
2022-12-19T19:28:27.346Z,1.73
2022-12-19T19:30:54.778Z,1.81
2022-12-19T19:33:28.407Z,1.89
2022-12-19T19:35:57.084Z,1.39
2022-12-19T19:38:24.747Z,1.11
2022-12-19T19:40:52.068Z,1.21
2022-12-19T19:43:19.456Z,1.20
2022-12-19T19:45:47.176Z,1.40
2022-12-19T19:48:14.705Z,1.53
2022-12-19T19:50:42.156Z,1.11
2022-12-19T19:53:09.772Z,1.08
2022-12-19T19:55:37.210Z,0.86
2022-12-19T19:58:05.245Z,0.32
2022-12-19T20:00:32.952Z,0.63
2022-12-19T20:03:06.242Z,1.23
2022-12-19T20:05:34.170Z,1.21
2022-12-19T20:08:01.766Z,1.11
2022-12-19T20:10:29.137Z,1.60
2022-12-19T20:12:56.534Z,1.42
2022-12-19T20:15:24.197Z,1.30
2022-12-19T20:17:52.932Z,1.48
2022-12-19T20:20:20.313Z,2.13
2022-12-19T20:22:48.051Z,1.33
2022-12-19T20:25:15.461Z,1.05
2022-12-19T20:27:42.856Z,1.94
2022-12-19T20:30:10.884Z,2.02
2022-12-19T20:32:38.228Z,2.42
2022-12-19T20:35:12.409Z,1.72
2022-12-19T20:37:42.488Z,1.60
2022-12-19T20:40:10.401Z,1.29
2022-12-19T20:42:37.715Z,2.13
2022-12-19T20:45:05.746Z,2.02
2022-12-19T20:47:33.324Z,1.32
2022-12-19T20:50:00.672Z,1.78
2022-12-19T20:52:28.363Z,1.98
2022-12-19T20:54:55.773Z,1.62
2022-12-19T20:57:23.294Z,1.17
2022-12-19T20:59:50.991Z,2.01
2022-12-19T21:02:18.418Z,1.40
2022-12-19T21:04:45.881Z,1.33
2022-12-19T21:07:13.492Z,1.83
2022-12-19T21:09:44.823Z,1.74
2022-12-19T21:12:12.399Z,1.90
2022-12-19T21:14:40.051Z,2.16
2022-12-19T21:17:07.548Z,2.07
2022-12-19T21:19:34.908Z,1.78
2022-12-19T21:22:02.720Z,1.83
2022-12-19T21:24:30.289Z,2.05
2022-12-19T21:26:58.321Z,1.91
2022-12-19T21:29:26.188Z,2.34
2022-12-19T21:31:53.587Z,2.28
2022-12-19T21:34:20.909Z,1.23
2022-12-19T21:36:48.508Z,1.71
2022-12-19T21:39:16.021Z,0.69
2022-12-19T21:41:43.368Z,1.73
2022-12-19T21:44:11.456Z,2.33
2022-12-19T21:46:38.941Z,2.55
2022-12-19T21:49:08.383Z,2.23
2022-12-19T21:51:35.998Z,1.86
2022-12-19T21:54:04.091Z,1.87
2022-12-19T21:56:34.250Z,2.00
2022-12-19T21:59:06.415Z,1.98
2022-12-19T22:01:34.164Z,2.31
2022-12-19T22:04:09.055Z,2.06
2022-12-19T22:06:39.634Z,2.31
2022-12-19T22:09:08.426Z,2.16
2022-12-19T22:11:35.917Z,1.68
2022-12-19T22:14:05.100Z,2.01
2022-12-19T22:16:33.204Z,1.39
2022-12-19T22:19:00.732Z,1.40
2022-12-19T22:21:28.110Z,0.80
2022-12-19T22:23:59.276Z,0.97
2022-12-19T22:26:27.328Z,0.70
2022-12-19T22:28:55.391Z,1.66
2022-12-19T22:31:23.688Z,1.78
2022-12-19T22:33:55.337Z,0.49
2022-12-19T22:36:28.037Z,1.10
2022-12-19T22:38:56.882Z,0.42
2022-12-19T22:41:24.605Z,-0.11
2022-12-19T22:43:52.380Z,0.32
2022-12-19T22:46:20.720Z,1.20
2022-12-19T22:48:48.869Z,1.13
2022-12-19T22:51:17.020Z,0.87
2022-12-19T22:53:44.429Z,-0.01
2022-12-19T22:56:14.405Z,0.22
2022-12-19T22:58:43.113Z,0.95
2022-12-19T23:01:23.573Z,1.47
2022-12-19T23:03:52.564Z,0.45
2022-12-19T23:06:20.129Z,0.67
2022-12-19T23:08:47.613Z,0.53
2022-12-19T23:11:17.095Z,0.83
2022-12-19T23:13:45.110Z,0.35
2022-12-19T23:16:13.277Z,0.88
2022-12-19T23:18:41.001Z,1.09
2022-12-19T23:21:13.829Z,1.19
2022-12-19T23:23:42.659Z,0.20
2022-12-19T23:26:15.741Z,0.40
2022-12-19T23:28:44.289Z,0.90
2022-12-19T23:31:13.064Z,0.43
2022-12-19T23:33:40.652Z,0.73
2022-12-19T23:36:08.717Z,0.92
2022-12-19T23:38:36.077Z,0.49
2022-12-19T23:41:04.751Z,0.97
2022-12-19T23:43:33.215Z,0.29
2022-12-19T23:46:05.549Z,0.05
2022-12-19T23:48:33.354Z,0.16
2022-12-19T23:51:01.770Z,1.05
2022-12-19T23:53:29.310Z,0.93
2022-12-19T23:55:56.982Z,1.31
2022-12-19T23:58:25.100Z,1.23
